Time;durP1;ratioP1;P1;durP2;ratioP2;P2;SDS_P1;SDS_P2;PMS_P1;PMS_P2;Temp;Humidity;BMP_temperature;BMP_pressure;BME280_temperature;BME280_humidity;BME280_pressure;Samples;Min_cycle;Max_cycle;Signal;HPM_P1;HPM_P2
2022/06/06 00:00:00;;;;;;;4.60;2.80;;;;;;;19.39;82.19;100602.28;5082105;28;20253;-69
2022/06/06 00:02:30;;;;;;;5.53;2.87;;;;;;;19.26;83.40;100597.66;5082028;28;20253;-69
2022/06/06 00:04:58;;;;;;;4.63;2.60;;;;;;;19.25;83.38;100600.59;5084799;28;20207;-68
2022/06/06 00:07:27;;;;;;;5.10;3.17;;;;;;;19.29;83.11;100599.13;5083860;28;20211;-69
2022/06/06 00:09:56;;;;;;;4.60;3.07;;;;;;;19.25;82.98;100595.19;5084742;28;20313;-68
2022/06/06 00:12:24;;;;;;;7.53;3.67;;;;;;;19.24;83.09;100594.38;5081623;28;20206;-68
2022/06/06 00:14:53;;;;;;;8.97;3.67;;;;;;;19.23;82.87;100590.03;5083987;28;20597;-69
2022/06/06 00:17:21;;;;;;;5.33;4.00;;;;;;;19.25;82.55;100590.66;5080871;28;20610;-69
2022/06/06 00:19:49;;;;;;;6.10;3.30;;;;;;;19.26;82.51;100594.97;5082423;28;20553;-70
2022/06/06 00:22:17;;;;;;;7.80;3.73;;;;;;;19.31;81.95;100589.84;5082189;28;20569;-69
2022/06/06 00:24:45;;;;;;;6.57;4.03;;;;;;;19.27;82.18;100582.38;5080968;28;20209;-70
2022/06/06 00:27:15;;;;;;;8.63;3.83;;;;;;;19.27;82.25;100588.56;5082789;28;20207;-70
2022/06/06 00:29:44;;;;;;;8.83;4.77;;;;;;;19.31;82.51;100583.63;5085033;28;20218;-70
2022/06/06 00:35:03;;;;;;;6.33;4.03;;;;;;;19.33;82.31;100579.72;5079827;28;20226;-71
2022/06/06 00:37:35;;;;;;;7.60;4.87;;;;;;;19.39;81.38;100581.59;5080231;28;20210;-70
2022/06/06 00:40:05;;;;;;;8.60;4.57;;;;;;;19.40;81.27;100571.66;5081833;28;20595;-70
2022/06/06 00:42:38;;;;;;;7.73;4.60;;;;;;;19.41;81.00;100578.69;5079665;28;20293;-70
2022/06/06 00:45:34;;;;;;;7.50;4.73;;;;;;;19.44;81.10;100583.66;5085508;28;20688;-70
2022/06/06 00:48:23;;;;;;;7.40;4.43;;;;;;;19.44;80.91;100572.91;5080924;28;20610;-70
2022/06/06 00:50:56;;;;;;;7.17;4.80;;;;;;;19.50;80.53;100578.34;5081632;28;20735;-71
2022/06/06 00:53:30;;;;;;;6.53;5.23;;;;;;;19.46;81.28;100582.44;5076694;28;20289;-71
2022/06/06 00:56:06;;;;;;;8.53;5.07;;;;;;;19.45;81.33;100577.25;5081080;28;20237;-71
2022/06/06 00:58:37;;;;;;;7.80;4.77;;;;;;;19.42;81.12;100574.97;5084240;28;20601;-70
2022/06/06 01:01:09;;;;;;;6.80;5.13;;;;;;;19.34;81.72;100569.78;5082716;28;20204;-71
2022/06/06 01:03:40;;;;;;;7.30;5.47;;;;;;;19.40;80.97;100583.25;5082254;28;20332;-70
2022/06/06 01:06:14;;;;;;;6.33;5.20;;;;;;;19.41;81.17;100570.63;5081121;28;20203;-70
2022/06/06 01:08:46;;;;;;;8.00;5.20;;;;;;;19.39;81.38;100570.00;5081566;28;20202;-71
2022/06/06 01:11:16;;;;;;;7.57;5.17;;;;;;;19.37;80.98;100566.69;5083353;28;20766;-71
2022/06/06 01:13:47;;;;;;;7.63;5.40;;;;;;;19.40;80.54;100567.13;5081491;28;22130;-70
2022/06/06 01:16:25;;;;;;;8.87;5.87;;;;;;;19.41;80.52;100573.31;5080345;28;20230;-70
2022/06/06 01:19:06;;;;;;;9.07;5.43;;;;;;;19.38;80.68;100562.97;5080214;28;20203;-71
2022/06/06 01:22:11;;;;;;;8.73;5.53;;;;;;;19.30;81.11;100565.84;5080371;28;20246;-69
2022/06/06 01:25:04;;;;;;;9.23;5.80;;;;;;;19.24;81.36;100569.34;5051438;28;20285;-69
2022/06/06 01:27:49;;;;;;;9.43;5.47;;;;;;;19.23;81.45;100578.44;5079744;28;20294;-69
2022/06/06 01:30:22;;;;;;;9.10;5.73;;;;;;;19.13;81.87;100576.97;5080022;28;20639;-68
2022/06/06 01:32:53;;;;;;;9.47;6.20;;;;;;;19.12;81.96;100580.69;5079772;28;20580;-70
2022/06/06 01:35:24;;;;;;;9.40;6.87;;;;;;;19.07;82.75;100572.41;5079118;28;20763;-69
2022/06/06 01:37:52;;;;;;;9.23;6.07;;;;;;;19.07;82.54;100571.56;5082221;28;20209;-68
2022/06/06 01:40:21;;;;;;;8.20;5.90;;;;;;;19.06;83.01;100562.69;5082437;28;20259;-67
2022/06/06 01:42:56;;;;;;;10.13;6.63;;;;;;;19.09;82.91;100570.31;5085399;28;20683;-68
2022/06/06 01:45:34;;;;;;;8.50;6.17;;;;;;;19.17;82.85;100564.75;5082570;28;20198;-69
2022/06/06 01:48:06;;;;;;;10.00;6.23;;;;;;;19.25;82.91;100573.69;5084262;28;20209;-68
2022/06/06 01:50:37;;;;;;;8.97;6.30;;;;;;;19.28;81.61;100563.34;5084025;28;20214;-68
2022/06/06 01:53:11;;;;;;;9.30;6.13;;;;;;;19.30;81.58;100571.22;5080867;28;20206;-69
2022/06/06 01:55:42;;;;;;;10.40;5.37;;;;;;;19.31;80.78;100567.50;5082326;28;20663;-68
2022/06/06 01:58:15;;;;;;;9.63;6.07;;;;;;;19.36;80.25;100565.03;5080996;28;20256;-68
2022/06/06 02:00:44;;;;;;;8.77;5.43;;;;;;;19.27;81.05;100560.84;5080848;28;20241;-69
2022/06/06 02:03:12;;;;;;;10.83;5.63;;;;;;;19.21;81.07;100561.69;5077379;28;20281;-69
2022/06/06 02:05:41;;;;;;;8.27;5.13;;;;;;;19.26;81.25;100564.59;5080407;28;20213;-69
2022/06/06 02:08:09;;;;;;;9.47;5.30;;;;;;;19.28;81.21;100563.34;5081797;28;20260;-69
2022/06/06 02:10:37;;;;;;;10.03;5.80;;;;;;;19.37;80.80;100566.69;5081704;28;20743;-68
2022/06/06 02:13:07;;;;;;;9.33;5.60;;;;;;;19.35;80.19;100563.38;5080365;28;20587;-67
2022/06/06 02:15:43;;;;;;;6.97;4.50;;;;;;;19.26;80.37;100564.59;5079557;28;20226;-69
2022/06/06 02:18:16;;;;;;;13.63;5.03;;;;;;;19.23;80.32;100567.69;5080625;28;20233;-68
2022/06/06 02:20:44;;;;;;;7.47;5.40;;;;;;;19.20;80.33;100568.09;5079289;28;20647;-69
2022/06/06 02:23:12;;;;;;;8.73;5.40;;;;;;;19.09;80.93;100573.00;5078915;28;21056;-69
2022/06/06 02:25:40;;;;;;;7.93;5.13;;;;;;;19.03;81.59;100570.28;5082134;28;20226;-70
2022/06/06 02:28:09;;;;;;;8.13;5.63;;;;;;;18.99;82.02;100569.06;5085766;28;20675;-70
2022/06/06 02:30:42;;;;;;;8.70;6.07;;;;;;;18.95;82.11;100576.69;5085851;28;20602;-68
2022/06/06 02:33:11;;;;;;;13.10;5.63;;;;;;;18.91;82.27;100574.59;5083042;28;20206;-69
2022/06/06 02:35:41;;;;;;;10.60;6.90;;;;;;;19.09;80.96;100577.53;5083955;28;20211;-68
2022/06/06 02:38:11;;;;;;;8.17;5.87;;;;;;;19.04;81.55;100575.47;5086836;28;20256;-68
2022/06/06 02:40:41;;;;;;;11.03;6.50;;;;;;;19.09;81.03;100580.22;5087096;28;20207;-68
2022/06/06 02:43:09;;;;;;;7.70;5.40;;;;;;;19.01;81.09;100573.19;5082980;28;22167;-68
2022/06/06 02:45:37;;;;;;;9.77;5.37;;;;;;;18.92;81.93;100573.53;5082874;28;20526;-67
2022/06/06 02:48:20;;;;;;;8.83;5.63;;;;;;;18.96;81.75;100574.81;5084990;28;20233;-68
2022/06/06 02:50:49;;;;;;;8.20;5.67;;;;;;;18.97;81.90;100577.31;5063471;28;20214;-68
2022/06/06 02:53:19;;;;;;;7.73;5.60;;;;;;;18.96;81.64;100572.97;5063960;28;20660;-68
2022/06/06 02:55:47;;;;;;;8.20;5.67;;;;;;;18.96;81.42;100586.41;5064615;28;20218;-68
2022/06/06 02:58:15;;;;;;;8.40;6.30;;;;;;;19.02;81.07;100585.59;5065535;28;20231;-68
2022/06/06 03:00:43;;;;;;;7.23;4.87;;;;;;;19.04;80.86;100574.66;5063423;28;20647;-68
2022/06/06 03:03:16;;;;;;;9.73;5.97;;;;;;;19.02;81.10;100579.38;5065239;28;20621;-68
2022/06/06 03:05:58;;;;;;;11.43;6.03;;;;;;;19.00;81.20;100579.56;5061853;28;20258;-67
2022/06/06 03:08:42;;;;;;;8.20;5.37;;;;;;;18.87;82.19;100582.22;5063509;28;20563;-68
2022/06/06 03:11:29;;;;;;;8.70;6.30;;;;;;;18.82;82.53;100584.69;5066704;28;20278;-68
2022/06/06 03:14:14;;;;;;;8.00;5.50;;;;;;;18.64;84.10;100587.91;5064661;28;20198;-69
2022/06/06 03:23:20;;;;;;;10.27;7.00;;;;;;;18.52;85.24;100589.44;5064147;28;20218;-67
2022/06/06 03:25:59;;;;;;;13.03;7.20;;;;;;;18.43;86.21;100585.22;5065634;28;20204;-68
2022/06/06 03:28:35;;;;;;;12.10;7.30;;;;;;;18.36;86.96;100585.19;5067999;28;20214;-67
2022/06/06 03:31:12;;;;;;;10.50;6.90;;;;;;;18.36;87.08;100585.19;5065434;28;20200;-69
2022/06/06 03:33:48;;;;;;;8.60;5.60;;;;;;;18.47;86.21;100575.75;5063183;28;20264;-69
2022/06/06 03:36:25;;;;;;;9.27;6.60;;;;;;;18.53;85.78;100588.41;5067481;28;20226;-69
2022/06/06 03:39:00;;;;;;;10.30;6.30;;;;;;;18.51;85.77;100586.94;5067555;28;20203;-69
2022/06/06 03:41:33;;;;;;;7.63;6.13;;;;;;;18.58;85.73;100585.16;5066795;28;20564;-70
2022/06/06 03:44:13;;;;;;;12.33;8.00;;;;;;;18.57;85.45;100596.91;5059663;28;20212;-70
2022/06/06 03:47:04;;;;;;;13.00;7.60;;;;;;;18.52;85.99;100596.66;5064318;28;20203;-68
2022/06/06 03:49:42;;;;;;;14.00;7.23;;;;;;;18.60;85.60;100594.66;5075713;28;20307;-69
2022/06/06 03:52:17;;;;;;;13.10;8.77;;;;;;;18.66;85.57;100601.09;5083293;28;20266;-69
2022/06/06 03:54:56;;;;;;;14.57;8.20;;;;;;;18.75;84.25;100603.44;5084001;28;20290;-69
2022/06/06 03:57:25;;;;;;;12.60;7.67;;;;;;;18.71;84.63;100604.88;5086233;28;20224;-68
2022/06/06 03:59:59;;;;;;;10.73;7.30;;;;;;;18.77;84.33;100608.63;5088067;28;20229;-68
2022/06/06 04:02:36;;;;;;;9.00;7.20;;;;;;;18.77;84.24;100614.81;5084223;28;20257;-68
2022/06/06 04:05:12;;;;;;;14.10;6.70;;;;;;;18.81;83.93;100609.06;5086760;28;20651;-69
2022/06/06 04:07:40;;;;;;;12.10;6.83;;;;;;;18.90;83.28;100614.06;5086153;28;20651;-68
2022/06/06 04:10:11;;;;;;;8.13;6.30;;;;;;;18.90;83.33;100614.06;5088873;28;20203;-68
2022/06/06 04:12:57;;;;;;;10.37;6.60;;;;;;;18.90;84.21;100615.94;5084001;28;20289;-68
2022/06/06 04:15:35;;;;;;;7.80;6.20;;;;;;;18.79;84.40;100609.25;5088436;28;20210;-68
2022/06/06 04:18:16;;;;;;;9.90;6.80;;;;;;;18.81;84.22;100617.94;5085826;28;20210;-69
2022/06/06 04:21:02;;;;;;;11.60;6.87;;;;;;;18.76;85.41;100621.22;5082802;28;20216;-70
2022/06/06 04:23:48;;;;;;;9.63;6.73;;;;;;;18.72;85.31;100628.03;5088143;28;20570;-70
2022/06/06 04:26:26;;;;;;;11.80;7.93;;;;;;;18.75;86.02;100632.16;5088244;28;20640;-69
2022/06/06 04:29:03;;;;;;;10.43;7.00;;;;;;;18.87;85.69;100632.44;5090968;28;20250;-68
2022/06/06 04:31:39;;;;;;;10.97;7.37;;;;;;;18.93;84.20;100624.41;5089930;28;20212;-68
2022/06/06 04:34:16;;;;;;;11.37;6.90;;;;;;;18.91;84.16;100626.44;5087304;28;20656;-70
2022/06/06 04:36:50;;;;;;;11.00;7.30;;;;;;;18.83;84.26;100629.31;5086670;28;20349;-70
2022/06/06 04:39:26;;;;;;;12.50;7.20;;;;;;;18.83;84.65;100623.94;5084791;28;20239;-70
2022/06/06 04:42:00;;;;;;;10.90;6.73;;;;;;;18.84;84.82;100630.97;5082298;28;20210;-70
2022/06/06 04:44:35;;;;;;;10.70;7.20;;;;;;;18.82;84.74;100632.22;5080246;28;20298;-70
2022/06/06 04:47:11;;;;;;;11.50;6.83;;;;;;;18.82;84.63;100635.72;5090672;28;20232;-70
2022/06/06 04:49:41;;;;;;;9.33;6.70;;;;;;;18.82;84.56;100619.63;5092488;28;20245;-70
2022/06/06 04:52:10;;;;;;;14.60;7.50;;;;;;;18.84;84.49;100625.59;5084827;28;20663;-71
2022/06/06 04:54:41;;;;;;;11.73;7.23;;;;;;;18.79;84.86;100625.38;5085222;28;20275;-71
2022/06/06 04:57:12;;;;;;;10.90;7.53;;;;;;;18.92;83.70;100630.81;5086709;28;20660;-70
2022/06/06 04:59:41;;;;;;;10.47;7.23;;;;;;;18.89;83.76;100628.53;5090299;28;20211;-70
2022/06/06 05:02:09;;;;;;;9.07;6.67;;;;;;;18.82;84.33;100627.66;5090028;28;20701;-70
2022/06/06 05:04:37;;;;;;;9.50;6.83;;;;;;;18.81;84.85;100627.88;5088540;28;20220;-70
2022/06/06 05:07:25;;;;;;;8.83;6.83;;;;;;;18.85;84.77;100616.50;5081430;28;20203;-71
2022/06/06 05:10:37;;;;;;;12.67;6.63;;;;;;;18.83;84.76;100615.88;5082487;28;20215;-70
2022/06/06 05:13:28;;;;;;;11.10;7.63;;;;;;;18.88;84.91;100610.75;5063675;28;20204;-70
2022/06/06 05:16:12;;;;;;;12.53;7.77;;;;;;;18.99;84.66;100607.50;5088213;28;20217;-70
2022/06/06 05:18:56;;;;;;;12.97;7.20;;;;;;;19.05;85.18;100605.88;5089296;28;20571;-71
2022/06/06 05:21:52;;;;;;;9.30;7.30;;;;;;;19.17;83.35;100610.44;5088969;28;20290;-71
2022/06/06 05:24:41;;;;;;;10.00;6.97;;;;;;;19.28;82.93;100610.91;5081014;28;20225;-71
2022/06/06 05:27:25;;;;;;;16.37;8.13;;;;;;;19.30;82.60;100616.94;5083638;28;20293;-71
2022/06/06 05:30:13;;;;;;;10.57;7.90;;;;;;;19.28;83.21;100616.28;5089991;28;20339;-70
2022/06/06 05:32:56;;;;;;;10.70;7.83;;;;;;;19.33;83.18;100611.16;5080388;28;20333;-70
2022/06/06 05:35:49;;;;;;;8.47;6.93;;;;;;;19.33;82.84;100608.47;5081478;28;20289;-70
2022/06/06 05:38:29;;;;;;;10.00;7.63;;;;;;;19.36;83.31;100614.25;5084552;28;20309;-70
2022/06/06 05:41:17;;;;;;;10.83;7.33;;;;;;;19.31;84.01;100632.03;5090774;28;20297;-71
2022/06/06 05:43:52;;;;;;;10.33;6.80;;;;;;;19.35;83.98;100638.69;5090284;28;20234;-70
2022/06/06 05:46:42;;;;;;;9.80;7.30;;;;;;;19.56;82.36;100646.63;5079791;28;20237;-70
2022/06/06 05:49:24;;;;;;;9.40;7.20;;;;;;;19.58;81.84;100644.56;5086635;28;20265;-70
2022/06/06 05:52:08;;;;;;;13.50;8.33;;;;;;;19.49;83.07;100635.03;5083323;28;20203;-70
2022/06/06 05:55:03;;;;;;;12.47;7.33;;;;;;;19.50;82.75;100631.31;5083189;28;20209;-70
2022/06/06 05:57:54;;;;;;;9.93;7.43;;;;;;;19.46;83.04;100646.13;5081888;28;20268;-69
2022/06/06 06:00:34;;;;;;;11.37;6.57;;;;;;;19.46;83.38;100644.28;5085267;28;20206;-69
2022/06/06 06:03:48;;;;;;;9.13;6.30;;;;;;;19.50;84.22;100642.06;5092331;28;20213;-69
2022/06/06 06:06:22;;;;;;;12.77;6.90;;;;;;;19.63;82.48;100644.78;5087803;28;20263;-70
2022/06/06 06:09:24;;;;;;;8.27;6.53;;;;;;;19.75;81.79;100643.16;5095293;28;20238;-70
2022/06/06 06:12:17;;;;;;;10.60;7.00;;;;;;;19.75;81.00;100647.72;5083436;28;20212;-69
2022/06/06 06:14:56;;;;;;;14.03;6.50;;;;;;;19.74;82.03;100648.75;5089486;28;20270;-69
2022/06/06 06:17:28;;;;;;;9.20;7.03;;;;;;;19.84;81.88;100652.72;5086884;28;20226;-69
2022/06/06 06:20:03;;;;;;;10.30;6.60;;;;;;;19.91;81.00;100645.47;5084339;28;20267;-69
2022/06/06 06:22:36;;;;;;;8.80;6.40;;;;;;;20.02;81.11;100635.97;5089107;28;20305;-69
2022/06/06 06:25:06;;;;;;;11.73;6.93;;;;;;;20.25;79.86;100640.94;5089366;28;20252;-69
2022/06/06 06:27:35;;;;;;;9.57;6.27;;;;;;;20.34;79.25;100647.81;5084475;28;20331;-69
2022/06/06 06:30:05;;;;;;;11.20;5.80;;;;;;;20.22;77.77;100657.53;5086268;28;20222;-69
2022/06/06 06:32:58;;;;;;;12.30;4.43;;;;;;;20.23;76.03;100659.16;5085154;28;20206;-69
2022/06/06 06:35:40;;;;;;;8.60;4.60;;;;;;;20.24;74.65;100650.88;5081792;28;20304;-70
2022/06/06 06:38:33;;;;;;;8.57;5.07;;;;;;;20.26;73.63;100653.38;5086753;28;20218;-69
2022/06/06 06:41:06;;;;;;;7.20;4.70;;;;;;;20.29;73.91;100658.34;5090280;28;20849;-70
2022/06/06 06:43:49;;;;;;;7.90;5.47;;;;;;;20.41;73.90;100667.47;5086290;28;20313;-70
2022/06/06 06:46:21;;;;;;;7.83;5.07;;;;;;;20.49;74.24;100666.47;5087528;28;20662;-70
2022/06/06 06:48:52;;;;;;;7.67;4.80;;;;;;;20.58;72.38;100673.31;5087852;28;20448;-69
2022/06/06 06:51:32;;;;;;;5.70;4.47;;;;;;;20.67;72.38;100676.59;5088681;28;20287;-69
2022/06/06 06:54:15;;;;;;;5.83;4.03;;;;;;;20.60;72.75;100668.50;5090005;28;20301;-69
2022/06/06 06:56:56;;;;;;;7.63;4.60;;;;;;;20.61;72.40;100680.94;5081519;28;20215;-70
2022/06/06 06:59:31;;;;;;;10.33;4.93;;;;;;;20.79;71.50;100673.06;5086569;28;20234;-70
2022/06/06 07:11:13;;;;;;;5.77;3.67;;;;;;;20.73;69.00;100686.53;5080052;28;20677;-69
2022/06/06 07:13:57;;;;;;;6.23;3.60;;;;;;;20.80;69.02;100690.06;5082623;28;20311;-69
2022/06/06 07:16:27;;;;;;;6.63;3.93;;;;;;;20.85;68.74;100679.47;5085757;28;20334;-68
2022/06/06 07:19:00;;;;;;;5.13;3.70;;;;;;;20.90;68.06;100663.50;5084871;28;20235;-69
2022/06/06 07:21:29;;;;;;;5.07;3.43;;;;;;;21.00;66.89;100666.59;5084717;28;20309;-69
2022/06/06 07:24:03;;;;;;;5.70;3.77;;;;;;;21.15;66.65;100667.16;5082266;28;20259;-69
2022/06/06 07:26:37;;;;;;;6.43;3.83;;;;;;;21.18;66.99;100669.47;5083639;28;20207;-69
2022/06/06 07:29:06;;;;;;;6.03;3.90;;;;;;;21.34;67.05;100676.25;5088333;28;20506;-69
2022/06/06 07:31:49;;;;;;;6.93;4.23;;;;;;;21.38;66.71;100675.59;5088230;28;20202;-69
2022/06/06 07:34:47;;;;;;;6.63;3.67;;;;;;;21.52;65.92;100673.69;5084243;28;20210;-69
2022/06/06 07:37:28;;;;;;;6.70;4.10;;;;;;;21.45;65.43;100672.06;5085072;28;20221;-69
2022/06/06 07:40:07;;;;;;;7.03;4.50;;;;;;;21.51;65.93;100674.72;5076627;28;20612;-69
2022/06/06 07:42:56;;;;;;;5.00;3.80;;;;;;;21.51;65.20;100669.34;5085765;28;20309;-69
2022/06/06 07:45:29;;;;;;;11.37;3.53;;;;;;;21.69;64.26;100661.38;5083425;28;20264;-69
2022/06/06 07:48:09;;;;;;;4.67;3.40;;;;;;;21.87;63.64;100667.91;5086815;28;20199;-69
2022/06/06 07:50:45;;;;;;;6.17;3.63;;;;;;;21.81;63.61;100664.22;5066111;28;20210;-69
2022/06/06 07:53:22;;;;;;;6.03;3.20;;;;;;;21.93;63.49;100662.47;5067381;28;20195;-69
2022/06/06 07:56:00;;;;;;;5.63;3.87;;;;;;;21.94;63.55;100663.28;5064345;28;20798;-69
2022/06/06 07:58:37;;;;;;;4.37;3.13;;;;;;;21.87;63.15;100662.50;5063859;28;20310;-70
2022/06/06 08:01:14;;;;;;;4.53;2.63;;;;;;;21.78;61.93;100661.94;5065563;28;20649;-68
2022/06/06 08:03:50;;;;;;;3.73;2.80;;;;;;;21.77;61.53;100657.56;5063548;28;20211;-68
2022/06/06 08:06:29;;;;;;;5.00;3.10;;;;;;;21.76;61.41;100662.16;5062512;28;20226;-68
2022/06/06 08:09:18;;;;;;;6.83;2.90;;;;;;;21.68;62.38;100653.47;5065388;28;20202;-68
2022/06/06 08:12:02;;;;;;;4.87;2.70;;;;;;;21.64;62.37;100657.63;5067977;28;20211;-68
2022/06/06 08:14:46;;;;;;;4.27;2.60;;;;;;;21.65;61.81;100645.81;5063319;28;20583;-68
2022/06/06 08:17:26;;;;;;;4.33;2.77;;;;;;;21.58;62.40;100650.41;5064286;28;20235;-67
2022/06/06 08:20:08;;;;;;;7.53;2.63;;;;;;;21.52;61.12;100652.13;5064869;28;20333;-68
2022/06/06 08:22:41;;;;;;;3.67;2.57;;;;;;;21.51;61.00;100652.31;5060967;28;20660;-69
2022/06/06 08:25:14;;;;;;;5.23;2.77;;;;;;;21.52;60.14;100649.41;5065465;28;20209;-69
2022/06/06 08:27:47;;;;;;;5.20;2.60;;;;;;;21.53;60.54;100652.94;5061910;28;20211;-69
2022/06/06 08:30:15;;;;;;;6.97;2.60;;;;;;;21.51;60.54;100652.31;5064781;28;20306;-68
2022/06/06 08:32:45;;;;;;;4.37;2.70;;;;;;;21.47;60.43;100657.31;5061272;28;21708;-70
2022/06/06 08:35:13;;;;;;;3.70;2.43;;;;;;;21.45;60.81;100653.19;5066186;28;20327;-73
2022/06/06 08:38:10;;;;;;;7.37;2.53;;;;;;;21.46;60.33;100649.44;5065084;28;20216;-70
2022/06/06 08:40:59;;;;;;;6.43;3.07;;;;;;;21.46;60.05;100655.66;5067525;28;20315;-70
2022/06/06 08:43:56;;;;;;;6.63;2.80;;;;;;;21.45;59.69;100653.19;5067899;28;20203;-70
2022/06/06 08:46:41;;;;;;;4.17;2.63;;;;;;;21.48;61.13;100650.03;5060258;28;20246;-69
2022/06/06 08:52:12;;;;;;;4.40;2.40;;;;;;;21.62;61.02;100646.25;5080435;28;20203;-70
2022/06/06 08:55:12;;;;;;;4.93;2.77;;;;;;;21.69;60.00;100642.47;5081389;28;20272;-71
2022/06/06 08:57:57;;;;;;;6.53;3.17;;;;;;;21.75;58.76;100632.66;5082544;28;20302;-70
2022/06/06 09:00:43;;;;;;;4.07;2.70;;;;;;;21.94;59.41;100634.41;5083076;28;20214;-70
2022/06/06 09:03:32;;;;;;;7.37;3.00;;;;;;;22.01;59.04;100637.91;5084423;28;20223;-71
2022/06/06 09:06:37;;;;;;;10.27;3.47;;;;;;;21.97;58.20;100635.84;5086738;28;20197;-70
2022/06/06 09:10:02;;;;;;;4.90;2.00;;;;;;;21.93;58.09;100640.03;5090098;28;20663;-70
2022/06/06 09:13:04;;;;;;;4.73;2.10;;;;;;;21.83;58.01;100645.91;5080885;28;20252;-70
2022/06/06 09:16:29;;;;;;;6.93;2.67;;;;;;;21.72;58.01;100650.13;5086977;28;20225;-72
2022/06/06 09:19:29;;;;;;;4.97;2.13;;;;;;;21.73;59.02;100648.25;4966039;28;20209;-70
2022/06/06 09:22:26;;;;;;;4.27;2.13;;;;;;;21.77;59.26;100652.19;5080063;28;20234;-70
2022/06/06 09:25:12;;;;;;;2.67;1.63;;;;;;;21.71;58.78;100647.66;5084901;28;20277;-70
2022/06/06 09:28:30;;;;;;;3.13;2.13;;;;;;;21.70;58.18;100648.69;5083811;28;20631;-70
2022/06/06 09:31:37;;;;;;;2.67;1.93;;;;;;;21.63;56.99;100647.91;5085853;28;20242;-69
2022/06/06 09:34:45;;;;;;;4.30;2.07;;;;;;;21.64;56.38;100646.84;5085521;28;20226;-70
2022/06/06 09:37:34;;;;;;;3.17;1.87;;;;;;;21.85;56.57;100641.13;5054969;28;20294;-69
2022/06/06 09:40:20;;;;;;;3.40;2.27;;;;;;;22.04;56.12;100645.59;5090052;28;20234;-70
2022/06/06 09:43:18;;;;;;;3.07;1.90;;;;;;;22.25;56.37;100630.06;5088274;28;20209;-70
2022/06/06 09:46:21;;;;;;;6.35;1.90;;;;;;;22.40;56.11;100630.56;5081621;28;20207;-70
2022/06/06 09:49:27;;;;;;;4.90;2.30;;;;;;;22.45;56.28;100630.72;5085636;28;20324;-69
2022/06/06 09:52:24;;;;;;;3.43;1.90;;;;;;;22.60;56.03;100633.09;5088071;28;20673;-69
2022/06/06 10:01:54;;;;;;;3.13;1.88;;;;;;;22.83;55.27;100628.69;5089715;28;20215;-70
2022/06/06 10:04:59;;;;;;;2.75;1.90;;;;;;;23.05;55.43;100617.41;5085035;28;20206;-70
2022/06/06 10:08:17;;;;;;;5.60;2.03;;;;;;;23.01;55.09;100621.66;5084539;28;20757;-70
2022/06/06 10:11:30;;;;;;;3.97;2.10;;;;;;;22.84;56.10;100616.84;5090219;28;20207;-69
2022/06/06 10:14:13;;;;;;;6.03;2.55;;;;;;;22.61;56.41;100622.03;5004935;28;20208;-69
2022/06/06 10:16:59;;;;;;;3.75;2.13;;;;;;;22.51;56.00;100629.84;5084755;28;20276;-69
2022/06/06 10:19:47;;;;;;;3.30;2.33;;;;;;;22.41;55.25;100622.25;5083548;28;20199;-70
2022/06/06 10:22:39;;;;;;;4.30;2.20;;;;;;;22.35;55.35;100627.69;5082093;28;20306;-70
2022/06/06 10:25:22;;;;;;;2.65;2.15;;;;;;;22.28;55.64;100621.50;5079682;28;20209;-69
2022/06/06 10:28:09;;;;;;;7.80;2.53;;;;;;;22.23;56.35;100618.66;5089718;28;20218;-68
2022/06/06 10:30:51;;;;;;;4.63;2.50;;;;;;;22.19;57.13;100617.44;5086970;28;20310;-70
2022/06/06 10:33:43;;;;;;;4.60;2.57;;;;;;;22.14;57.57;100631.59;5086115;28;20528;-70
2022/06/06 10:36:36;;;;;;;5.38;2.50;;;;;;;22.11;57.04;100627.47;5086983;28;20483;-69
2022/06/06 10:39:40;;;;;;;4.47;2.30;;;;;;;22.05;57.78;100622.13;5084396;28;20202;-69
2022/06/06 10:42:22;;;;;;;5.38;2.40;;;;;;;22.01;56.98;100616.31;5083802;28;20205;-70
2022/06/06 10:45:16;;;;;;;3.60;2.20;;;;;;;22.05;57.66;100616.72;5084574;28;20268;-70
2022/06/06 10:48:10;;;;;;;3.30;1.80;;;;;;;22.07;56.80;100620.88;5087438;28;20202;-70
2022/06/06 10:54:03;;;;;;;4.40;2.17;;;;;;;22.12;57.96;100623.72;5069665;28;20568;-70
2022/06/06 10:57:12;;;;;;;5.03;1.77;;;;;;;22.11;55.59;100635.56;5071477;28;20719;-69
2022/06/06 11:00:22;;;;;;;3.43;1.70;;;;;;;22.14;54.35;100628.91;5004573;28;20296;-69
2022/06/06 11:03:20;;;;;;;4.40;1.75;;;;;;;22.20;53.88;100627.19;5068339;28;20317;-70
2022/06/06 11:06:35;;;;;;;2.80;1.90;;;;;;;22.24;53.75;100626.53;5071733;28;20208;-69
2022/06/06 11:09:25;;;;;;;6.73;2.40;;;;;;;22.24;53.58;100625.72;5072017;28;20703;-70
2022/06/06 11:12:14;;;;;;;3.57;1.70;;;;;;;22.21;54.39;100623.44;5071761;28;20191;-75
2022/06/06 11:14:44;;;;;;;4.53;1.60;;;;;;;22.21;54.24;100616.16;5070498;28;20223;-69
2022/06/06 11:17:52;;;;;;;3.88;1.67;;;;;;;22.23;53.88;100622.19;5066094;28;20204;-69
2022/06/06 11:20:47;;;;;;;3.67;1.63;;;;;;;22.27;53.36;100609.03;5068814;28;20231;-70
2022/06/06 11:23:42;;;;;;;3.97;1.73;;;;;;;22.39;53.78;100607.28;5067163;28;20211;-69
2022/06/06 11:26:34;;;;;;;3.50;1.70;;;;;;;22.50;54.54;100595.75;5070191;28;20701;-69
2022/06/06 11:29:30;;;;;;;2.58;1.83;;;;;;;22.71;54.90;100589.91;5069862;28;20223;-69
2022/06/06 11:32:28;;;;;;;3.80;2.13;;;;;;;23.02;54.59;100590.84;5068916;28;20656;-70
2022/06/06 11:35:35;;;;;;;;;;;;;;;;;;;;;
2022/06/06 11:38:27;;;;;;;2.85;1.50;;;;;;;23.40;50.49;100580.56;5068162;28;20217;-70
2022/06/06 11:41:40;;;;;;;4.57;1.70;;;;;;;23.58;49.76;100580.53;5069209;28;20251;-71
2022/06/06 11:44:16;;;;;;;2.08;1.25;;;;;;;23.65;48.09;100574.22;5067281;28;20705;-70
2022/06/06 11:47:36;;;;;;;7.88;1.67;;;;;;;23.76;48.61;100568.81;5067261;28;20258;-70
2022/06/06 11:50:31;;;;;;;4.25;1.55;;;;;;;23.98;49.18;100574.50;5013851;28;20722;-70
2022/06/06 11:53:29;;;;;;;3.08;1.77;;;;;;;24.07;47.44;100559.56;5061466;28;20215;-70
2022/06/06 11:56:07;;;;;;;2.47;1.55;;;;;;;24.46;46.67;100566.19;5068726;28;20302;-70
2022/06/06 11:59:21;;;;;;;4.30;1.50;;;;;;;24.47;47.03;100558.88;5066515;28;20212;-70
2022/06/06 12:02:17;;;;;;;3.20;1.50;;;;;;;24.44;46.86;100562.09;5069072;28;20227;-69
2022/06/06 12:05:16;;;;;;;3.40;1.17;;;;;;;24.61;46.64;100555.69;5064576;28;20227;-70
2022/06/06 12:08:07;;;;;;;4.00;1.75;;;;;;;24.87;46.87;100551.63;5071492;28;20204;-70
2022/06/06 12:10:39;;;;;;;2.83;1.33;;;;;;;24.73;47.25;100559.19;5071121;28;20199;-71
2022/06/06 12:13:56;;;;;;;3.78;1.50;;;;;;;24.60;46.84;100543.22;5066903;28;20234;-69
2022/06/06 12:16:30;;;;;;;3.15;1.40;;;;;;;24.66;46.22;100549.56;5072998;28;20269;-70
2022/06/06 12:19:20;;;;;;;1.75;1.17;;;;;;;24.72;45.29;100543.16;5067765;28;20211;-70
2022/06/06 12:22:07;;;;;;;2.33;1.45;;;;;;;24.64;46.49;100538.13;5070718;28;20672;-70
2022/06/06 12:25:00;;;;;;;2.67;1.35;;;;;;;24.68;45.30;100528.44;5066541;28;20270;-70
2022/06/06 12:27:46;;;;;;;3.42;1.40;;;;;;;24.74;45.58;100543.75;5067463;28;20211;-71
2022/06/06 12:30:39;;;;;;;2.88;1.63;;;;;;;24.59;46.27;100536.13;5065554;28;20223;-70
2022/06/06 12:33:12;;;;;;;5.32;1.48;;;;;;;24.42;46.52;100537.09;5063538;28;20222;-70
2022/06/06 12:35:53;;;;;;;3.20;1.30;;;;;;;24.43;45.73;100539.56;5067217;28;20257;-70
2022/06/06 12:38:35;;;;;;;2.20;1.20;;;;;;;24.28;45.87;100533.78;5067859;28;20665;-69
2022/06/06 12:41:15;;;;;;;1.73;1.23;;;;;;;24.37;45.60;100532.38;5067285;28;20269;-70
2022/06/06 12:43:56;;;;;;;3.50;1.70;;;;;;;24.34;45.85;100525.56;5067848;28;20289;-70
2022/06/06 12:47:04;;;;;;;3.50;1.25;;;;;;;24.16;45.31;100522.94;5066930;28;20586;-70
2022/06/06 12:50:07;;;;;;;3.30;1.27;;;;;;;24.19;45.38;100522.44;5077815;28;20667;-70
2022/06/06 12:53:03;;;;;;;4.38;1.42;;;;;;;24.21;45.64;100514.13;5082568;28;20647;-70
2022/06/06 12:55:55;;;;;;;5.82;1.55;;;;;;;24.40;44.17;100503.97;5083853;28;20202;-69
2022/06/06 12:58:38;;;;;;;4.70;1.45;;;;;;;24.34;44.72;100498.47;5094557;28;20279;-70
2022/06/06 13:01:40;;;;;;;3.80;1.23;;;;;;;24.29;45.06;100489.38;5089982;28;20226;-70
2022/06/06 13:04:23;;;;;;;2.65;1.33;;;;;;;24.14;45.00;100497.97;5081865;28;20203;-71